Terminal Aerodrome Forecast
Issued by NWS

Current Version | Previous Version | Graphics & Text | Print | Product List | Glossary On
Versions: 1 2 3 4 5 6 7 8 9 10 11 12 13 14 15 16 17 18 19
359
FTUS41 KPBZ 241739
TAFHLG
TAF
KHLG 241739Z 2418/2518 22005KT P6SM SCT250
     FM242000 24006KT P6SM VCTS SCT040CB
     FM250300 21003KT P6SM BKN080=

USA.gov is the U.S. government's official web portal to all federal, state and local government web resources and services.